Time;durP1;ratioP1;P1;durP2;ratioP2;P2;SDS_P1;SDS_P2;PMS_P1;PMS_P2;Temp;Humidity;BMP_temperature;BMP_pressure;BME280_temperature;BME280_humidity;BME280_pressure;Samples;Min_cycle;Max_cycle;Signal;HPM_P1;HPM_P2
2021/12/06 00:01:29;;;;;;;;;;;5.60;99.90;;;;;;5037921;28;19905;-87
2021/12/06 00:04:00;;;;;;;;;;;5.60;99.90;;;;;;5055827;28;19931;-87
2021/12/06 00:06:28;;;;;;;;;;;5.60;99.90;;;;;;5020750;28;19919;-87
2021/12/06 00:08:54;;;;;;;;;;;5.60;99.90;;;;;;5020974;28;19912;-88
2021/12/06 00:11:20;;;;;;;;;;;5.50;99.90;;;;;;5020958;28;19919;-88
2021/12/06 00:13:47;;;;;;;;;;;5.60;99.90;;;;;;5020980;28;19909;-88
2021/12/06 00:16:17;;;;;;;;;;;5.60;99.90;;;;;;5021111;28;20219;-88
2021/12/06 00:18:43;;;;;;;;;;;5.60;99.90;;;;;;5020581;28;19913;-88
2021/12/06 00:21:09;;;;;;;;;;;5.70;99.90;;;;;;5037626;28;19916;-88
2021/12/06 00:23:35;;;;;;;;;;;5.70;99.90;;;;;;5020867;28;20057;-88
2021/12/06 00:26:01;;;;;;;;;;;5.70;99.90;;;;;;5020999;28;19912;-88
2021/12/06 00:28:27;;;;;;;;;;;5.70;99.90;;;;;;5024375;28;19909;-87
2021/12/06 00:30:53;;;;;;;;;;;5.70;99.90;;;;;;5042775;28;20185;-88
2021/12/06 00:33:19;;;;;;;;;;;5.70;99.90;;;;;;5040831;28;19913;-88
2021/12/06 00:35:44;;;;;;;;;;;5.70;99.90;;;;;;5037349;28;19936;-88
2021/12/06 00:38:10;;;;;;;;;;;5.70;99.90;;;;;;5020214;28;19915;-87
2021/12/06 00:40:38;;;;;;;;;;;5.70;99.90;;;;;;5020855;28;19951;-87
2021/12/06 00:43:05;;;;;;;;;;;5.60;99.90;;;;;;5037091;28;19999;-88
2021/12/06 00:45:30;;;;;;;;;;;5.60;99.90;;;;;;5037104;28;19940;-87
2021/12/06 00:47:56;;;;;;;;;;;5.60;99.90;;;;;;5020056;28;19946;-87
2021/12/06 00:50:23;;;;;;;;;;;5.50;99.90;;;;;;5020384;28;20381;-88
2021/12/06 00:52:49;;;;;;;;;;;5.50;99.90;;;;;;5020496;28;20350;-88
2021/12/06 00:55:16;;;;;;;;;;;5.50;99.90;;;;;;5020478;28;19948;-88
2021/12/06 00:57:42;;;;;;;;;;;5.50;99.90;;;;;;5020260;28;19916;-88
2021/12/06 01:00:10;;;;;;;;;;;5.50;99.90;;;;;;5020554;28;19999;-88
2021/12/06 01:02:36;;;;;;;;;;;5.60;99.90;;;;;;5020248;28;19913;-88
2021/12/06 01:05:02;;;;;;;;;;;5.50;99.90;;;;;;5020319;28;20003;-88
2021/12/06 01:07:28;;;;;;;;;;;5.50;99.90;;;;;;5036205;28;19913;-88
2021/12/06 01:09:53;;;;;;;;;;;5.50;99.90;;;;;;5019668;28;19919;-88
2021/12/06 01:12:19;;;;;;;;;;;5.40;99.90;;;;;;5052773;28;19908;-88
2021/12/06 01:14:44;;;;;;;;;;;5.40;99.90;;;;;;5053220;28;19908;-88
2021/12/06 01:17:10;;;;;;;;;;;5.40;99.90;;;;;;5036498;28;20270;-88
2021/12/06 01:19:37;;;;;;;;;;;5.30;99.90;;;;;;5019239;28;20373;-88
2021/12/06 01:24:47;;;;;;;;;;;5.30;99.90;;;;;;5036190;28;19955;-88
2021/12/06 01:29:59;;;;;;;;;;;5.20;99.90;;;;;;5035337;28;19909;-87
2021/12/06 01:40:18;;;;;;;;;;;5.00;99.90;;;;;;5034861;28;20011;-88
2021/12/06 01:42:44;;;;;;;;;;;5.00;99.90;;;;;;5019595;28;19909;-88
2021/12/06 01:45:09;;;;;;;;;;;5.00;99.90;;;;;;5052450;28;19955;-88
2021/12/06 01:47:41;;;;;;;;;;;4.90;99.90;;;;;;5018923;28;19913;-88
2021/12/06 01:50:20;;;;;;;;;;;4.90;99.90;;;;;;5019961;28;19908;-87
2021/12/06 01:52:48;;;;;;;;;;;4.90;99.90;;;;;;5035636;28;20305;-88
2021/12/06 01:55:16;;;;;;;;;;;4.90;99.90;;;;;;5019141;28;20352;-88
2021/12/06 01:57:42;;;;;;;;;;;4.80;99.90;;;;;;5018681;28;19908;-88
2021/12/06 02:00:11;;;;;;;;;;;4.80;99.90;;;;;;5019119;28;19916;-88
2021/12/06 02:02:41;;;;;;;;;;;4.80;99.90;;;;;;5053216;28;20382;-88
2021/12/06 02:05:09;;;;;;;;;;;4.80;99.90;;;;;;5035498;28;19958;-88
2021/12/06 02:07:35;;;;;;;;;;;4.80;99.90;;;;;;5018234;28;19916;-88
2021/12/06 02:10:00;;;;;;;;;;;4.70;99.90;;;;;;5051954;28;19999;-87
2021/12/06 02:12:31;;;;;;;;;;;4.70;99.90;;;;;;5019338;28;19909;-88
2021/12/06 02:15:04;;;;;;;;;;;4.70;99.90;;;;;;5018667;28;19958;-88
2021/12/06 02:17:35;;;;;;;;;;;4.70;99.90;;;;;;5018206;28;19909;-89
2021/12/06 02:20:05;;;;;;;;;;;4.70;99.90;;;;;;5035243;28;19916;-89
2021/12/06 02:22:32;;;;;;;;;;;4.70;99.90;;;;;;5035154;28;19913;-87
2021/12/06 02:24:58;;;;;;;;;;;4.70;99.90;;;;;;5035039;28;19920;-88
2021/12/06 02:27:27;;;;;;;;;;;4.70;99.90;;;;;;5018594;28;20277;-88
2021/12/06 02:29:54;;;;;;;;;;;4.60;99.90;;;;;;5018152;28;19950;-88
2021/12/06 02:32:20;;;;;;;;;;;4.70;99.90;;;;;;5059482;23;19920;-84
2021/12/06 02:34:48;;;;;;;;;;;4.60;99.90;;;;;;5035828;28;19909;-85
2021/12/06 02:37:17;;;;;;;;;;;4.60;99.90;;;;;;5034991;28;20300;-84
2021/12/06 02:39:42;;;;;;;;;;;4.60;99.90;;;;;;5034254;28;19916;-85
2021/12/06 02:42:11;;;;;;;;;;;4.60;99.90;;;;;;5034607;28;19908;-85
2021/12/06 02:44:38;;;;;;;;;;;4.60;99.90;;;;;;5018400;28;19916;-85
2021/12/06 02:47:04;;;;;;;;;;;4.60;99.90;;;;;;5052422;28;20021;-84
2021/12/06 02:49:30;;;;;;;;;;;4.60;99.90;;;;;;5018009;28;19913;-85
2021/12/06 02:51:56;;;;;;;;;;;4.60;99.90;;;;;;5024633;28;19958;-84
2021/12/06 02:54:23;;;;;;;;;;;4.60;99.90;;;;;;5024742;28;19908;-85
2021/12/06 02:57:07;;;;;;;;;;;4.60;99.90;;;;;;5024834;28;19916;-84
2021/12/06 02:59:33;;;;;;;;;;;4.70;99.90;;;;;;5024036;28;19909;-84
2021/12/06 03:02:00;;;;;;;;;;;4.70;99.90;;;;;;5024665;28;20369;-84
2021/12/06 03:04:27;;;;;;;;;;;4.80;99.90;;;;;;5024868;28;19978;-85
2021/12/06 03:06:55;;;;;;;;;;;4.80;99.90;;;;;;5040931;28;20376;-85
2021/12/06 03:09:23;;;;;;;;;;;4.80;99.90;;;;;;5040464;28;20296;-85
2021/12/06 03:11:52;;;;;;;;;;;4.80;99.90;;;;;;5024300;28;19979;-84
2021/12/06 03:14:22;;;;;;;;;;;4.80;99.90;;;;;;5041160;28;19958;-85
2021/12/06 03:16:51;;;;;;;;;;;4.70;99.90;;;;;;5041075;28;19908;-84
2021/12/06 03:19:17;;;;;;;;;;;4.60;99.90;;;;;;5024016;28;19947;-85
2021/12/06 03:21:43;;;;;;;;;;;4.60;99.90;;;;;;5040724;28;19944;-85
2021/12/06 03:24:10;;;;;;;;;;;4.50;99.90;;;;;;5024784;28;20345;-85
2021/12/06 03:26:39;;;;;;;;;;;4.50;99.90;;;;;;5024351;28;20258;-85
2021/12/06 03:29:06;;;;;;;;;;;4.50;99.90;;;;;;5023694;28;19916;-84
2021/12/06 03:31:32;;;;;;;;;;;4.40;99.90;;;;;;5040482;28;19908;-85
2021/12/06 03:34:02;;;;;;;;;;;4.30;99.90;;;;;;5024910;28;19920;-85
2021/12/06 03:36:29;;;;;;;;;;;4.30;99.90;;;;;;5024571;28;19908;-85
2021/12/06 03:38:56;;;;;;;;;;;4.20;99.90;;;;;;5023651;28;20373;-85
2021/12/06 03:41:23;;;;;;;;;;;4.20;99.90;;;;;;5024615;28;20034;-85
2021/12/06 03:43:52;;;;;;;;;;;4.10;99.90;;;;;;5024234;28;19990;-85
2021/12/06 03:46:21;;;;;;;;;;;4.00;99.90;;;;;;5024464;28;19915;-85
2021/12/06 03:48:47;;;;;;;;;;;4.10;99.90;;;;;;5023718;28;19966;-85
2021/12/06 03:51:14;;;;;;;;;;;4.00;99.90;;;;;;5024210;28;20332;-85
2021/12/06 03:53:41;;;;;;;;;;;4.00;99.90;;;;;;5024386;28;19963;-85
2021/12/06 03:56:07;;;;;;;;;;;4.00;99.90;;;;;;5024256;28;19952;-85
2021/12/06 03:58:33;;;;;;;;;;;3.90;99.90;;;;;;5023723;28;19908;-84
2021/12/06 04:01:02;;;;;;;;;;;3.90;99.90;;;;;;5024053;28;20349;-84
2021/12/06 04:03:31;;;;;;;;;;;3.80;99.90;;;;;;5020744;28;19908;-85
2021/12/06 04:05:58;;;;;;;;;;;3.80;99.90;;;;;;5021491;28;19917;-84
2021/12/06 04:08:25;;;;;;;;;;;3.70;99.90;;;;;;5037335;28;20149;-85
2021/12/06 04:10:51;;;;;;;;;;;3.70;99.90;;;;;;5021165;28;20336;-85
2021/12/06 04:13:18;;;;;;;;;;;3.70;99.90;;;;;;5021228;28;19936;-85
2021/12/06 04:15:44;;;;;;;;;;;3.60;99.90;;;;;;5020951;28;19919;-85
2021/12/06 04:18:11;;;;;;;;;;;3.60;99.90;;;;;;5036751;28;19920;-85
2021/12/06 04:20:37;;;;;;;;;;;3.80;99.90;;;;;;5020851;28;19905;-85
2021/12/06 04:23:04;;;;;;;;;;;3.70;99.90;;;;;;5037455;28;19909;-86
2021/12/06 04:25:31;;;;;;;;;;;3.60;99.90;;;;;;5021012;28;19965;-84
2021/12/06 04:28:00;;;;;;;;;;;3.60;99.90;;;;;;5019973;28;19972;-84
2021/12/06 04:30:28;;;;;;;;;;;3.60;99.90;;;;;;5020688;28;20046;-85
2021/12/06 04:32:55;;;;;;;;;;;3.70;99.90;;;;;;5037235;28;19921;-84
2021/12/06 04:35:21;;;;;;;;;;;3.70;99.90;;;;;;5020585;28;19915;-84
2021/12/06 04:37:48;;;;;;;;;;;3.60;99.90;;;;;;5020102;28;20007;-85
2021/12/06 04:40:14;;;;;;;;;;;3.60;99.90;;;;;;5053550;28;20347;-85
2021/12/06 04:42:41;;;;;;;;;;;3.60;99.90;;;;;;5020231;28;19908;-85
2021/12/06 04:45:08;;;;;;;;;;;3.50;99.90;;;;;;5036779;28;20383;-84
2021/12/06 04:47:35;;;;;;;;;;;3.60;99.90;;;;;;5019662;28;19924;-85
2021/12/06 04:50:00;;;;;;;;;;;3.40;99.90;;;;;;5020092;28;20286;-85
2021/12/06 04:52:26;;;;;;;;;;;3.50;99.90;;;;;;5020248;28;19915;-85
2021/12/06 04:54:53;;;;;;;;;;;3.50;99.90;;;;;;5020133;28;19908;-84
2021/12/06 04:57:34;;;;;;;;;;;3.40;99.90;;;;;;5020100;28;20007;-85
2021/12/06 05:00:21;;;;;;;;;;;3.40;99.90;;;;;;5020239;28;19999;-86
2021/12/06 05:02:50;;;;;;;;;;;3.40;99.90;;;;;;5020379;28;19915;-85
2021/12/06 05:05:22;;;;;;;;;;;3.40;99.90;;;;;;5053001;28;19913;-85
2021/12/06 05:07:53;;;;;;;;;;;3.30;99.90;;;;;;5052575;28;19913;-84
2021/12/06 05:10:19;;;;;;;;;;;3.30;99.90;;;;;;5019970;28;19959;-84
2021/12/06 05:12:45;;;;;;;;;;;3.30;99.90;;;;;;5035979;28;19940;-85
2021/12/06 05:15:11;;;;;;;;;;;3.30;99.90;;;;;;5019845;28;19909;-84
2021/12/06 05:17:37;;;;;;;;;;;3.30;99.90;;;;;;5019322;28;19915;-84
2021/12/06 05:20:03;;;;;;;;;;;3.40;99.90;;;;;;5019869;28;19909;-85
2021/12/06 05:22:30;;;;;;;;;;;3.30;99.90;;;;;;5019715;28;20289;-84
2021/12/06 05:24:56;;;;;;;;;;;3.30;99.90;;;;;;5019865;28;19909;-85
2021/12/06 05:27:27;;;;;;;;;;;3.20;99.90;;;;;;5019549;28;20002;-85
2021/12/06 05:29:58;;;;;;;;;;;3.20;99.90;;;;;;5019460;28;19908;-85
2021/12/06 05:32:30;;;;;;;;;;;3.20;99.90;;;;;;5019370;28;20391;-85
2021/12/06 05:35:02;;;;;;;;;;;3.20;99.90;;;;;;5035799;28;20383;-85
2021/12/06 05:37:28;;;;;;;;;;;3.20;99.90;;;;;;5019103;28;19909;-84
2021/12/06 05:39:55;;;;;;;;;;;3.20;99.90;;;;;;5019052;28;19908;-85
2021/12/06 05:42:21;;;;;;;;;;;3.20;99.90;;;;;;5019312;28;19915;-84
2021/12/06 05:44:47;;;;;;;;;;;3.20;99.90;;;;;;5035950;28;20003;-84
2021/12/06 05:47:13;;;;;;;;;;;3.10;99.90;;;;;;5035571;28;19913;-84
2021/12/06 05:49:38;;;;;;;;;;;3.10;99.90;;;;;;5051713;28;19955;-85
2021/12/06 05:52:04;;;;;;;;;;;3.00;99.90;;;;;;5035769;28;20293;-84
2021/12/06 05:54:30;;;;;;;;;;;3.00;99.90;;;;;;5053611;28;19904;-85
2021/12/06 05:56:56;;;;;;;;;;;3.00;99.90;;;;;;5018996;28;19908;-85
2021/12/06 05:59:22;;;;;;;;;;;2.90;99.90;;;;;;5034847;28;19909;-84
2021/12/06 06:01:50;;;;;;;;;;;3.00;99.90;;;;;;5035022;28;19951;-84
2021/12/06 06:04:16;;;;;;;;;;;3.10;99.90;;;;;;5019058;28;20363;-85
2021/12/06 06:06:41;;;;;;;;;;;3.10;99.90;;;;;;5035253;28;19963;-85
2021/12/06 06:09:07;;;;;;;;;;;3.00;99.90;;;;;;5034761;28;19910;-86
2021/12/06 06:11:36;;;;;;;;;;;3.00;99.90;;;;;;5035179;28;19908;-84
2021/12/06 06:14:05;;;;;;;;;;;3.10;99.90;;;;;;5018915;28;20006;-85
2021/12/06 06:16:35;;;;;;;;;;;3.10;99.90;;;;;;5053000;28;19909;-84
2021/12/06 06:19:01;;;;;;;;;;;3.10;99.90;;;;;;5052840;28;19912;-85
2021/12/06 06:21:27;;;;;;;;;;;3.20;99.90;;;;;;5034663;28;19909;-84
2021/12/06 06:23:52;;;;;;;;;;;3.30;99.90;;;;;;5018816;28;20007;-85
2021/12/06 06:26:18;;;;;;;;;;;3.30;99.90;;;;;;5034641;28;19912;-84
2021/12/06 06:28:46;;;;;;;;;;;3.30;99.90;;;;;;5034604;28;19908;-84
2021/12/06 06:31:12;;;;;;;;;;;3.30;99.90;;;;;;5052784;28;19999;-86
2021/12/06 06:33:37;;;;;;;;;;;3.30;99.90;;;;;;5052916;28;19974;-84
2021/12/06 06:36:03;;;;;;;;;;;3.30;99.90;;;;;;5051701;28;19984;-84
2021/12/06 06:38:29;;;;;;;;;;;3.20;99.90;;;;;;5020503;28;19935;-84
2021/12/06 06:40:55;;;;;;;;;;;3.00;99.90;;;;;;5055184;28;19931;-85
2021/12/06 06:43:21;;;;;;;;;;;3.00;99.90;;;;;;5055448;28;19909;-85
2021/12/06 06:45:46;;;;;;;;;;;3.00;99.90;;;;;;5020227;28;19920;-86
2021/12/06 06:48:12;;;;;;;;;;;2.90;99.90;;;;;;5053300;28;20277;-84
2021/12/06 06:50:37;;;;;;;;;;;2.90;99.90;;;;;;5054724;28;20377;-85
2021/12/06 06:53:04;;;;;;;;;;;2.80;99.90;;;;;;5020665;28;19916;-85
2021/12/06 06:55:29;;;;;;;;;;;2.80;99.90;;;;;;5036887;28;19916;-85
2021/12/06 06:57:55;;;;;;;;;;;2.80;99.90;;;;;;5020339;28;20332;-85
2021/12/06 07:00:22;;;;;;;;;;;2.80;99.90;;;;;;5053566;28;19912;-84
2021/12/06 07:02:48;;;;;;;;;;;2.80;99.90;;;;;;5020344;28;19931;-85
2021/12/06 07:05:14;;;;;;;;;;;2.80;99.90;;;;;;5036895;28;20320;-84
2021/12/06 07:07:40;;;;;;;;;;;2.80;99.90;;;;;;5053195;28;20336;-84
2021/12/06 07:10:07;;;;;;;;;;;2.80;99.90;;;;;;5037040;28;19955;-85
2021/12/06 07:12:40;;;;;;;;;;;2.70;99.90;;;;;;5037067;28;19912;-84
2021/12/06 07:15:06;;;;;;;;;;;2.80;99.90;;;;;;5020606;28;19916;-84
2021/12/06 07:17:31;;;;;;;;;;;2.90;99.90;;;;;;5019893;28;19909;-86
2021/12/06 07:19:59;;;;;;;;;;;2.80;99.90;;;;;;5036807;28;20296;-86
2021/12/06 07:22:25;;;;;;;;;;;2.90;99.90;;;;;;5020659;28;19940;-84
2021/12/06 07:24:51;;;;;;;;;;;2.80;99.90;;;;;;5037073;28;19909;-85
2021/12/06 07:27:17;;;;;;;;;;;2.70;99.90;;;;;;5037284;28;19909;-85
2021/12/06 07:29:43;;;;;;;;;;;2.60;99.90;;;;;;5020251;28;19908;-84
2021/12/06 07:32:09;;;;;;;;;;;2.60;99.90;;;;;;5036442;28;19935;-84
2021/12/06 07:34:36;;;;;;;;;;;2.60;99.90;;;;;;5037313;28;20266;-84
2021/12/06 07:37:03;;;;;;;;;;;2.70;99.90;;;;;;5038540;28;19909;-86
2021/12/06 07:39:29;;;;;;;;;;;2.70;99.90;;;;;;5041136;28;19912;-85
2021/12/06 07:41:54;;;;;;;;;;;2.60;99.90;;;;;;5041023;28;19913;-85
2021/12/06 07:44:21;;;;;;;;;;;2.60;99.90;;;;;;5024770;28;20003;-85
2021/12/06 07:46:46;;;;;;;;;;;2.60;99.90;;;;;;5041708;28;19921;-85
2021/12/06 07:49:12;;;;;;;;;;;2.50;99.90;;;;;;5059050;28;19976;-86
2021/12/06 07:51:38;;;;;;;;;;;2.60;99.90;;;;;;5025019;28;19908;-84
2021/12/06 07:54:04;;;;;;;;;;;2.50;99.90;;;;;;5058338;28;19912;-86
2021/12/06 07:56:29;;;;;;;;;;;2.50;99.90;;;;;;5025314;28;20361;-84
2021/12/06 07:58:55;;;;;;;;;;;2.50;99.90;;;;;;5024571;28;19943;-84
2021/12/06 08:01:21;;;;;;;;;;;2.60;99.90;;;;;;5058571;28;19939;-85
2021/12/06 08:03:47;;;;;;;;;;;2.60;99.90;;;;;;5025321;28;19908;-85
2021/12/06 08:06:12;;;;;;;;;;;2.70;99.90;;;;;;5042031;28;19913;-86
2021/12/06 08:08:40;;;;;;;;;;;2.70;99.90;;;;;;5025322;28;19915;-86
2021/12/06 08:11:09;;;;;;;;;;;2.70;99.90;;;;;;5025690;28;19959;-85
2021/12/06 08:13:35;;;;;;;;;;;2.70;99.90;;;;;;5042360;28;19913;-84
2021/12/06 08:16:03;;;;;;;;;;;2.80;99.90;;;;;;5041763;28;19910;-84
2021/12/06 08:18:29;;;;;;;;;;;2.80;99.90;;;;;;5024596;28;19999;-85
2021/12/06 08:20:56;;;;;;;;;;;2.90;99.90;;;;;;5025651;28;19964;-85
2021/12/06 08:23:23;;;;;;;;;;;2.80;99.90;;;;;;5024596;28;19916;-84
2021/12/06 08:25:49;;;;;;;;;;;2.90;99.90;;;;;;5025614;28;19913;-85
2021/12/06 08:28:16;;;;;;;;;;;2.90;99.90;;;;;;5040762;28;19909;-84
2021/12/06 08:30:43;;;;;;;;;;;2.90;99.90;;;;;;5042048;28;19908;-85
2021/12/06 08:33:09;;;;;;;;;;;3.00;99.90;;;;;;5066338;22;19943;-87
2021/12/06 08:35:36;;;;;;;;;;;2.90;99.90;;;;;;5059463;28;20357;-87
2021/12/06 08:38:03;;;;;;;;;;;3.00;99.90;;;;;;5056754;28;20283;-86
2021/12/06 08:40:28;;;;;;;;;;;3.00;99.90;;;;;;5057660;28;19913;-86
2021/12/06 08:42:55;;;;;;;;;;;3.00;99.90;;;;;;5046811;28;19983;-85
2021/12/06 08:45:21;;;;;;;;;;;3.00;99.90;;;;;;5037341;28;19916;-86
2021/12/06 08:47:47;;;;;;;;;;;3.00;99.90;;;;;;5036265;28;19923;-86
2021/12/06 08:50:15;;;;;;;;;;;3.10;99.90;;;;;;5037462;28;19909;-85
2021/12/06 08:52:42;;;;;;;;;;;3.10;99.90;;;;;;5037229;28;19958;-87
2021/12/06 08:55:08;;;;;;;;;;;3.10;99.90;;;;;;5053897;28;19908;-87
2021/12/06 08:57:34;;;;;;;;;;;3.10;99.90;;;;;;5036944;28;19920;-86
2021/12/06 09:00:00;;;;;;;;;;;3.10;99.90;;;;;;5020573;28;19905;-87
2021/12/06 09:02:25;;;;;;;;;;;3.20;99.90;;;;;;5036685;28;19908;-86
2021/12/06 09:04:51;;;;;;;;;;;3.20;99.90;;;;;;5020263;28;19905;-85
2021/12/06 09:07:18;;;;;;;;;;;3.20;99.90;;;;;;5019771;28;19919;-86
2021/12/06 09:09:48;;;;;;;;;;;3.20;99.90;;;;;;5035607;28;19993;-86
2021/12/06 09:12:24;;;;;;;;;;;3.30;99.90;;;;;;5036213;28;19908;-87
2021/12/06 09:14:51;;;;;;;;;;;3.30;99.90;;;;;;5036280;28;19909;-86
2021/12/06 09:17:17;;;;;;;;;;;3.30;99.90;;;;;;5053984;28;19908;-86
2021/12/06 09:19:45;;;;;;;;;;;3.40;99.90;;;;;;5019025;28;19908;-86
2021/12/06 09:22:11;;;;;;;;;;;3.40;99.90;;;;;;5019884;28;20376;-86
2021/12/06 09:24:37;;;;;;;;;;;3.50;99.90;;;;;;5035981;28;19954;-84
2021/12/06 09:27:03;;;;;;;;;;;3.60;99.90;;;;;;5019396;28;19913;-87
2021/12/06 09:29:32;;;;;;;;;;;3.60;99.90;;;;;;5035557;28;19908;-87
2021/12/06 09:31:59;;;;;;;;;;;3.60;99.90;;;;;;5035623;28;19912;-85
2021/12/06 09:34:26;;;;;;;;;;;3.70;99.90;;;;;;5035876;28;20296;-86
2021/12/06 09:36:52;;;;;;;;;;;3.70;99.90;;;;;;5035989;28;19909;-86
2021/12/06 09:39:17;;;;;;;;;;;3.80;99.90;;;;;;5018739;28;19954;-85
2021/12/06 09:41:43;;;;;;;;;;;3.80;99.90;;;;;;5052131;28;20118;-86
2021/12/06 09:44:10;;;;;;;;;;;3.90;99.90;;;;;;5019424;28;19908;-86
2021/12/06 09:46:37;;;;;;;;;;;4.00;99.90;;;;;;5035654;28;19912;-86
2021/12/06 09:49:11;;;;;;;;;;;4.00;99.90;;;;;;5018586;28;20266;-86
2021/12/06 09:51:38;;;;;;;;;;;4.10;99.90;;;;;;5018993;28;19908;-87
2021/12/06 09:54:04;;;;;;;;;;;4.10;99.90;;;;;;5035538;28;20345;-86
2021/12/06 09:56:32;;;;;;;;;;;4.10;99.90;;;;;;5035766;28;19954;-86
2021/12/06 09:58:59;;;;;;;;;;;4.20;99.90;;;;;;5018381;28;20338;-86
2021/12/06 10:01:27;;;;;;;;;;;4.20;99.90;;;;;;5034865;28;19913;-86
2021/12/06 10:03:55;;;;;;;;;;;4.30;99.90;;;;;;5035486;28;19909;-87
2021/12/06 10:06:22;;;;;;;;;;;4.40;99.90;;;;;;5035603;28;20335;-85
2021/12/06 10:08:50;;;;;;;;;;;4.40;99.90;;;;;;5035073;28;19908;-85
2021/12/06 10:11:16;;;;;;;;;;;4.50;99.90;;;;;;5035277;28;19909;-86
2021/12/06 10:13:43;;;;;;;;;;;4.50;99.90;;;;;;5019152;28;19904;-84
2021/12/06 10:16:09;;;;;;;;;;;4.50;99.90;;;;;;5018920;28;19913;-85
2021/12/06 10:18:34;;;;;;;;;;;4.70;99.90;;;;;;5034910;28;19970;-86
2021/12/06 10:21:00;;;;;;;;;;;4.60;99.90;;;;;;5035082;28;19956;-87
2021/12/06 10:23:26;;;;;;;;;;;4.70;99.90;;;;;;5035449;28;19908;-86
2021/12/06 10:25:53;;;;;;;;;;;4.70;99.90;;;;;;5035335;28;20388;-86
2021/12/06 10:28:23;;;;;;;;;;;4.70;99.90;;;;;;5052370;28;19904;-86
2021/12/06 10:30:50;;;;;;;;;;;4.80;99.90;;;;;;5035016;28;20396;-88
2021/12/06 10:33:20;;;;;;;;;;;4.80;99.90;;;;;;5018392;28;19952;-85
2021/12/06 10:35:48;;;;;;;;;;;4.80;99.90;;;;;;5018631;28;19912;-86
2021/12/06 10:38:34;;;;;;;;;;;4.90;99.90;;;;;;5034364;28;19999;-87
2021/12/06 10:41:01;;;;;;;;;;;4.90;99.90;;;;;;5034406;28;20288;-86
2021/12/06 10:43:27;;;;;;;;;;;4.90;99.90;;;;;;5034686;28;19908;-85
2021/12/06 10:45:55;;;;;;;;;;;4.80;99.90;;;;;;5051343;28;20284;-88
2021/12/06 10:48:22;;;;;;;;;;;4.90;99.90;;;;;;5034153;28;20369;-87
2021/12/06 10:50:50;;;;;;;;;;;4.80;99.90;;;;;;5034636;28;20373;-86
2021/12/06 10:53:18;;;;;;;;;;;4.90;99.90;;;;;;5018203;28;19944;-86
2021/12/06 10:55:45;;;;;;;;;;;4.90;99.90;;;;;;5035057;28;20007;-86
2021/12/06 10:58:12;;;;;;;;;;;4.90;99.90;;;;;;5017952;28;19905;-86
2021/12/06 11:00:38;;;;;;;;;;;4.80;99.90;;;;;;5035172;28;19970;-85
2021/12/06 11:03:04;;;;;;;;;;;5.00;99.90;;;;;;5034594;28;20361;-86
2021/12/06 11:05:32;;;;;;;;;;;5.00;99.90;;;;;;5034753;28;19909;-85
2021/12/06 11:08:06;;;;;;;;;;;5.00;99.90;;;;;;5033898;28;20339;-87
2021/12/06 11:10:36;;;;;;;;;;;5.00;99.90;;;;;;5034387;28;19908;-87
2021/12/06 11:13:23;;;;;;;;;;;5.00;99.90;;;;;;5038641;28;20293;-85
2021/12/06 11:15:54;;;;;;;;;;;5.00;99.90;;;;;;5038624;28;19909;-86
2021/12/06 11:18:30;;;;;;;;;;;5.00;99.90;;;;;;5037806;28;19908;-86
2021/12/06 11:20:56;;;;;;;;;;;5.00;99.90;;;;;;5038256;28;19931;-86
2021/12/06 11:23:21;;;;;;;;;;;5.00;99.90;;;;;;5021863;28;19904;-86
2021/12/06 11:25:54;;;;;;;;;;;5.00;99.90;;;;;;5038858;28;20376;-86
2021/12/06 11:28:26;;;;;;;;;;;5.00;99.90;;;;;;5037606;28;19908;-87
2021/12/06 11:31:03;;;;;;;;;;;5.00;99.90;;;;;;5038046;28;20011;-86
2021/12/06 11:33:34;;;;;;;;;;;4.90;99.90;;;;;;5037961;28;19913;-87
2021/12/06 11:36:01;;;;;;;;;;;5.00;99.90;;;;;;5038322;28;19956;-86
2021/12/06 11:38:27;;;;;;;;;;;5.00;99.90;;;;;;5037592;28;19959;-86
2021/12/06 11:40:58;;;;;;;;;;;4.90;99.90;;;;;;5038336;28;19916;-85
2021/12/06 11:43:24;;;;;;;;;;;4.90;99.90;;;;;;5038108;28;19958;-86
2021/12/06 11:45:57;;;;;;;;;;;5.00;99.90;;;;;;5021612;28;19992;-86
2021/12/06 11:48:26;;;;;;;;;;;4.90;99.90;;;;;;5021013;28;19915;-86
2021/12/06 11:51:07;;;;;;;;;;;4.90;99.90;;;;;;5038015;28;19912;-86
2021/12/06 11:53:34;;;;;;;;;;;4.90;99.90;;;;;;5021464;28;19962;-86
2021/12/06 11:56:03;;;;;;;;;;;4.90;99.90;;;;;;5021624;28;19974;-86
2021/12/06 11:58:34;;;;;;;;;;;4.90;99.90;;;;;;5054971;28;19917;-85
2021/12/06 12:01:04;;;;;;;;;;;4.90;99.90;;;;;;5037816;28;19916;-86
2021/12/06 12:03:30;;;;;;;;;;;4.90;99.90;;;;;;5021708;28;20289;-85
2021/12/06 12:05:56;;;;;;;;;;;4.90;99.90;;;;;;5037695;28;19909;-86
2021/12/06 12:08:22;;;;;;;;;;;4.90;99.90;;;;;;5043900;28;19916;-85
2021/12/06 12:10:47;;;;;;;;;;;4.90;99.90;;;;;;5065409;28;19912;-85
2021/12/06 12:13:25;;;;;;;;;;;4.80;99.90;;;;;;5044945;28;20169;-86
2021/12/06 12:15:52;;;;;;;;;;;4.90;99.90;;;;;;5021973;28;19956;-87
2021/12/06 12:18:18;;;;;;;;;;;5.00;99.90;;;;;;5037112;28;19912;-86
2021/12/06 12:20:44;;;;;;;;;;;5.00;99.90;;;;;;5037588;28;19908;-86
2021/12/06 12:23:10;;;;;;;;;;;5.00;99.90;;;;;;5037757;28;19909;-86
2021/12/06 12:25:47;;;;;;;;;;;5.00;99.90;;;;;;5064635;28;19912;-86
2021/12/06 12:30:41;;;;;;;;;;;5.00;99.90;;;;;;5044123;28;19905;-87
2021/12/06 12:33:08;;;;;;;;;;;5.00;99.90;;;;;;5048735;28;19913;-87
2021/12/06 12:35:35;;;;;;;;;;;5.00;99.90;;;;;;5031691;28;19909;-85
2021/12/06 12:38:02;;;;;;;;;;;5.00;99.90;;;;;;5030163;28;19909;-86
2021/12/06 12:40:37;;;;;;;;;;;5.00;99.90;;;;;;5045945;28;19909;-86
2021/12/06 12:43:04;;;;;;;;;;;5.00;99.90;;;;;;5046163;28;20361;-86
2021/12/06 12:45:38;;;;;;;;;;;5.00;99.90;;;;;;5023225;28;19935;-87
2021/12/06 12:48:04;;;;;;;;;;;5.00;99.90;;;;;;5036159;28;20304;-85
2021/12/06 12:50:32;;;;;;;;;;;5.00;99.90;;;;;;5037297;28;19905;-85
2021/12/06 12:53:05;;;;;;;;;;;5.00;99.90;;;;;;5036737;28;19919;-86
2021/12/06 12:55:32;;;;;;;;;;;4.90;99.90;;;;;;5036892;28;19909;-87
2021/12/06 12:58:19;;;;;;;;;;;5.00;99.90;;;;;;5019727;28;19904;-86
2021/12/06 13:00:48;;;;;;;;;;;5.00;99.90;;;;;;5036735;28;19917;-87
2021/12/06 13:03:33;;;;;;;;;;;4.90;99.90;;;;;;5021753;28;19905;-85
2021/12/06 13:06:17;;;;;;;;;;;5.00;99.90;;;;;;5045077;28;19916;-86
2021/12/06 13:08:43;;;;;;;;;;;5.00;99.90;;;;;;5039981;28;19908;-86
2021/12/06 13:11:09;;;;;;;;;;;4.90;99.90;;;;;;5019874;28;19909;-86
2021/12/06 13:13:42;;;;;;;;;;;5.00;99.90;;;;;;5036408;28;20269;-85
2021/12/06 13:19:14;;;;;;;;;;;5.00;99.90;;;;;;5035957;28;19909;-86
2021/12/06 13:21:43;;;;;;;;;;;5.00;99.90;;;;;;5036478;28;19932;-86
2021/12/06 13:24:12;;;;;;;;;;;5.00;99.90;;;;;;5036528;28;19931;-87
2021/12/06 13:26:39;;;;;;;;;;;5.00;99.90;;;;;;5019594;28;19941;-86
2021/12/06 13:29:06;;;;;;;;;;;5.00;99.90;;;;;;5035544;28;19924;-86
2021/12/06 13:31:32;;;;;;;;;;;5.00;99.90;;;;;;5053788;28;19916;-87
2021/12/06 13:33:58;;;;;;;;;;;5.00;99.90;;;;;;5019316;28;19917;-86
2021/12/06 13:36:41;;;;;;;;;;;5.00;99.90;;;;;;5053765;28;19919;-86
2021/12/06 13:39:26;;;;;;;;;;;4.90;99.90;;;;;;5036270;28;20388;-87
2021/12/06 13:41:51;;;;;;;;;;;5.00;99.90;;;;;;5036462;28;20061;-86
2021/12/06 13:44:21;;;;;;;;;;;5.00;99.90;;;;;;5036152;28;19952;-86
2021/12/06 13:46:50;;;;;;;;;;;5.00;99.90;;;;;;5052458;28;19912;-86
2021/12/06 13:49:23;;;;;;;;;;;4.90;99.90;;;;;;5018787;28;19908;-87
2021/12/06 13:52:03;;;;;;;;;;;5.00;99.90;;;;;;5035875;28;19916;-86
2021/12/06 13:54:36;;;;;;;;;;;4.90;99.90;;;;;;5035553;28;19909;-85
2021/12/06 13:57:05;;;;;;;;;;;5.00;99.90;;;;;;5035755;28;19909;-87
2021/12/06 13:59:31;;;;;;;;;;;5.00;99.90;;;;;;5034999;28;19912;-85
2021/12/06 14:02:03;;;;;;;;;;;5.00;99.90;;;;;;5018799;28;19915;-86
2021/12/06 14:04:31;;;;;;;;;;;5.00;99.90;;;;;;5053261;28;20351;-86
2021/12/06 14:06:57;;;;;;;;;;;5.00;99.90;;;;;;5052109;28;19909;-86
2021/12/06 14:09:31;;;;;;;;;;;5.00;99.90;;;;;;5034766;28;20007;-85
2021/12/06 14:11:58;;;;;;;;;;;5.00;99.90;;;;;;5035657;28;19909;-85
2021/12/06 14:14:25;;;;;;;;;;;5.00;99.90;;;;;;5035588;28;19962;-85
2021/12/06 14:16:51;;;;;;;;;;;4.90;99.90;;;;;;5035221;28;19954;-87
2021/12/06 14:19:18;;;;;;;;;;;5.00;99.90;;;;;;5034910;28;19904;-86
2021/12/06 14:21:44;;;;;;;;;;;5.00;99.90;;;;;;5018558;28;19970;-86
2021/12/06 14:24:09;;;;;;;;;;;5.00;99.90;;;;;;5035240;28;19909;-86
2021/12/06 14:26:43;;;;;;;;;;;4.90;99.90;;;;;;5035015;28;19913;-86
2021/12/06 14:29:13;;;;;;;;;;;4.90;99.90;;;;;;5034870;28;19916;-87
2021/12/06 14:31:39;;;;;;;;;;;4.90;99.90;;;;;;5035157;28;19916;-86
2021/12/06 14:34:05;;;;;;;;;;;4.80;99.90;;;;;;5061892;22;19925;-85
2021/12/06 14:36:31;;;;;;;;;;;4.80;99.90;;;;;;5034321;28;20349;-85
2021/12/06 14:39:05;;;;;;;;;;;4.80;99.90;;;;;;5018900;28;19909;-85
2021/12/06 14:41:31;;;;;;;;;;;4.80;99.90;;;;;;5034487;28;19968;-86
2021/12/06 14:43:56;;;;;;;;;;;4.80;99.90;;;;;;5034841;28;19952;-85
2021/12/06 14:46:22;;;;;;;;;;;4.80;99.90;;;;;;5017605;28;20270;-85
2021/12/06 14:48:49;;;;;;;;;;;4.80;99.90;;;;;;5033670;28;19945;-84
2021/12/06 14:51:16;;;;;;;;;;;4.80;99.90;;;;;;5034327;28;19909;-85
2021/12/06 14:56:43;;;;;;;;;;;4.80;99.90;;;;;;5034528;28;19915;-85